createdAt,value
2018-05-14T00:02:11.865Z,98093.96
2018-05-14T00:04:39.436Z,98089.84
2018-05-14T00:07:07.056Z,98088.87
2018-05-14T00:09:34.645Z,98087.37
2018-05-14T00:12:02.233Z,98085.34
2018-05-14T00:14:29.938Z,98088.86
2018-05-14T00:16:57.507Z,98088.61
2018-05-14T00:19:25.106Z,98090.98
2018-05-14T00:21:52.789Z,98092.76
2018-05-14T00:24:20.360Z,98098.93
2018-05-14T00:26:47.953Z,98107.09
2018-05-14T00:29:15.668Z,98109.30
2018-05-14T00:31:44.256Z,98108.84
2018-05-14T00:34:11.920Z,98111.11
2018-05-14T00:36:39.686Z,98114.56
2018-05-14T00:39:07.338Z,98118.19
2018-05-14T00:41:34.919Z,98116.72
2018-05-14T00:44:02.532Z,98127.50
2018-05-14T00:46:30.164Z,98128.34
2018-05-14T00:48:57.756Z,98125.27
2018-05-14T00:51:25.368Z,98124.22
2018-05-14T00:53:52.935Z,98120.97
2018-05-14T00:56:20.585Z,98126.20
2018-05-14T00:58:48.288Z,98121.95
2018-05-14T01:01:16.017Z,98125.09
2018-05-14T01:03:43.628Z,98121.11
2018-05-14T01:06:11.353Z,98121.95
2018-05-14T01:08:39.014Z,98124.98
2018-05-14T01:11:06.619Z,98119.64
2018-05-14T01:13:34.428Z,98118.87
2018-05-14T01:16:01.991Z,98117.45
2018-05-14T01:18:29.559Z,98119.55
2018-05-14T01:20:58.888Z,98120.00
2018-05-14T01:23:26.517Z,98117.80
2018-05-14T01:25:54.075Z,98126.53
2018-05-14T01:28:21.716Z,98130.30
2018-05-14T01:30:49.349Z,98131.77
2018-05-14T01:33:16.957Z,98133.61
2018-05-14T01:35:44.589Z,98129.01
2018-05-14T01:38:12.170Z,98129.84
2018-05-14T01:40:39.756Z,98128.66
2018-05-14T01:43:07.380Z,98128.86
2018-05-14T01:45:34.971Z,98140.59
2018-05-14T01:48:02.576Z,98135.56
2018-05-14T01:50:30.440Z,98138.32
2018-05-14T01:52:58.020Z,98129.73
2018-05-14T01:55:25.600Z,98124.05
2018-05-14T01:57:53.293Z,98129.29
2018-05-14T02:00:20.865Z,98130.12
2018-05-14T02:02:48.493Z,98139.86
2018-05-14T02:05:16.201Z,98139.16
2018-05-14T02:07:43.830Z,98143.32
2018-05-14T02:10:11.408Z,98144.37
2018-05-14T02:12:39.181Z,98135.16
2018-05-14T02:15:06.779Z,98137.14
2018-05-14T02:17:34.348Z,98133.89
2018-05-14T02:20:01.996Z,98135.78
2018-05-14T02:22:29.556Z,98136.94
2018-05-14T02:24:57.147Z,98134.77
2018-05-14T02:27:24.781Z,98140.46
2018-05-14T02:29:52.431Z,98145.55
2018-05-14T02:32:20.060Z,98143.81
2018-05-14T02:34:47.689Z,98143.50
2018-05-14T02:37:15.268Z,98146.22
2018-05-14T02:39:42.859Z,98142.55
2018-05-14T02:42:10.483Z,98140.67
2018-05-14T02:44:38.079Z,98147.02
2018-05-14T02:47:06.059Z,98149.36
2018-05-14T02:49:33.694Z,98149.88
2018-05-14T02:52:01.326Z,98150.86
2018-05-14T02:54:28.928Z,98150.75
2018-05-14T02:56:56.652Z,98152.49
2018-05-14T02:59:24.218Z,98159.30
2018-05-14T03:01:51.853Z,98164.19
2018-05-14T03:04:19.592Z,98174.89
2018-05-14T03:06:47.176Z,98176.84
2018-05-14T03:09:14.742Z,98180.92
2018-05-14T03:11:42.444Z,98178.97
2018-05-14T03:14:10.074Z,98183.19
2018-05-14T03:16:37.680Z,98192.59
2018-05-14T03:19:05.424Z,98192.73
2018-05-14T03:21:33.048Z,98206.99
2018-05-14T03:24:00.688Z,98207.83
2018-05-14T03:26:29.300Z,98211.80
2018-05-14T03:28:56.876Z,98211.77
2018-05-14T03:31:24.456Z,98211.98
2018-05-14T03:33:52.191Z,98213.11
2018-05-14T03:36:19.767Z,98210.39
2018-05-14T03:38:47.335Z,98206.80
2018-05-14T03:41:14.969Z,98205.97
2018-05-14T03:43:42.863Z,98215.88
2018-05-14T03:46:10.428Z,98209.67
2018-05-14T03:48:38.055Z,98220.77
2018-05-14T03:51:05.640Z,98232.28
2018-05-14T03:53:33.236Z,98241.20
2018-05-14T03:56:00.916Z,98238.17
2018-05-14T03:58:40.148Z,98237.94
2018-05-14T04:01:14.529Z,98235.92
2018-05-14T04:03:53.948Z,98238.19
2018-05-14T04:06:28.516Z,98241.23
2018-05-14T04:08:56.089Z,98232.75
2018-05-14T04:11:23.688Z,98237.56
2018-05-14T04:13:51.363Z,98243.08
2018-05-14T04:16:18.998Z,98256.91
2018-05-14T04:18:46.568Z,98249.30
2018-05-14T04:21:14.244Z,98251.44
2018-05-14T04:23:42.423Z,98255.77
2018-05-14T04:26:10.009Z,98263.35
2018-05-14T04:28:38.480Z,98264.09
2018-05-14T04:31:06.082Z,98260.59
2018-05-14T04:33:33.661Z,98258.16
2018-05-14T04:36:01.392Z,98263.68
2018-05-14T04:38:28.955Z,98263.80
2018-05-14T04:40:56.747Z,98269.98
2018-05-14T04:43:24.380Z,98278.55
2018-05-14T04:45:52.023Z,98280.55
2018-05-14T04:48:19.613Z,98273.41
2018-05-14T04:50:47.331Z,98273.42
2018-05-14T04:53:14.913Z,98273.95
2018-05-14T04:55:42.596Z,98272.98
2018-05-14T04:58:10.220Z,98274.67
2018-05-14T05:00:37.869Z,98277.14
2018-05-14T05:03:05.442Z,98272.20
2018-05-14T05:05:33.084Z,98275.30
2018-05-14T05:08:00.668Z,98277.77
2018-05-14T05:10:28.315Z,98276.78
2018-05-14T05:12:55.923Z,98286.63
2018-05-14T05:15:24.228Z,98280.91
2018-05-14T05:17:53.340Z,98283.66
2018-05-14T05:20:21.038Z,98286.78
2018-05-14T05:22:48.664Z,98288.02
2018-05-14T05:25:16.260Z,98287.48
2018-05-14T05:27:43.944Z,98290.34
2018-05-14T05:30:11.593Z,98294.34
2018-05-14T05:32:39.258Z,98298.30
2018-05-14T05:35:06.984Z,98299.11
2018-05-14T05:37:34.584Z,98301.72
2018-05-14T05:40:02.167Z,98296.86
2018-05-14T05:42:29.792Z,98305.17
2018-05-14T05:44:57.387Z,98309.91
2018-05-14T05:47:24.976Z,98314.77
2018-05-14T05:49:52.740Z,98311.48
2018-05-14T05:52:20.329Z,98319.63
2018-05-14T05:54:47.918Z,98326.39
2018-05-14T05:57:16.457Z,98326.81
2018-05-14T05:59:44.039Z,98336.85
2018-05-14T06:02:11.624Z,98334.05
2018-05-14T06:04:39.441Z,98336.39
2018-05-14T06:07:07.022Z,98335.92
2018-05-14T06:09:34.635Z,98333.66
2018-05-14T06:12:02.334Z,98342.81
2018-05-14T06:14:29.920Z,98345.23
2018-05-14T06:16:57.504Z,98347.78
2018-05-14T06:19:25.248Z,98343.40
2018-05-14T06:21:52.829Z,98340.91
2018-05-14T06:24:20.444Z,98341.78
2018-05-14T06:26:48.896Z,98340.74
2018-05-14T06:29:16.471Z,98344.98
2018-05-14T06:31:44.091Z,98346.73
2018-05-14T06:34:11.735Z,98338.66
2018-05-14T06:36:39.348Z,98343.81
2018-05-14T06:39:07.012Z,98338.66
2018-05-14T06:41:34.639Z,98341.62
2018-05-14T06:44:02.208Z,98349.42
2018-05-14T06:46:29.852Z,98351.23
2018-05-14T06:48:57.603Z,98353.49
2018-05-14T06:51:25.690Z,98361.95
2018-05-14T06:53:53.280Z,98355.89
2018-05-14T06:56:21.010Z,98361.22
2018-05-14T06:58:48.597Z,98367.10
2018-05-14T07:01:16.221Z,98375.25
2018-05-14T07:03:43.946Z,98382.47
2018-05-14T07:06:11.653Z,98382.66
2018-05-14T07:08:39.287Z,98387.38
2018-05-14T07:11:07.023Z,98386.38
2018-05-14T07:13:34.601Z,98386.94
2018-05-14T07:16:02.256Z,98389.55
2018-05-14T07:18:29.885Z,98388.53
2018-05-14T07:20:57.469Z,98392.63
2018-05-14T07:23:25.140Z,98398.24
2018-05-14T07:25:52.855Z,98399.80
2018-05-14T07:28:20.436Z,98390.27
2018-05-14T07:30:48.078Z,98393.53
2018-05-14T07:33:15.796Z,98391.77
2018-05-14T07:35:43.424Z,98394.25
2018-05-14T07:38:11.020Z,98400.56
2018-05-14T07:40:38.676Z,98404.84
2018-05-14T07:43:06.364Z,98403.84
2018-05-14T07:45:33.950Z,98399.20
2018-05-14T07:48:01.632Z,98389.85
2018-05-14T07:50:29.236Z,98391.20
2018-05-14T07:52:56.820Z,98393.22
2018-05-14T07:55:24.462Z,98394.95
2018-05-14T07:57:52.112Z,98402.38
2018-05-14T08:00:19.745Z,98397.09
2018-05-14T08:02:47.395Z,98394.81
2018-05-14T08:05:15.088Z,98392.91
2018-05-14T08:07:42.755Z,98398.20
2018-05-14T08:10:10.392Z,98397.48
2018-05-14T08:12:38.033Z,98401.82
2018-05-14T08:15:05.615Z,98392.46
2018-05-14T08:17:33.264Z,98398.77
2018-05-14T08:20:00.859Z,98400.75
2018-05-14T08:22:28.445Z,98405.48
2018-05-14T08:24:56.133Z,98411.56
2018-05-14T08:27:23.724Z,98410.38
2018-05-14T08:29:51.338Z,98409.84
2018-05-14T08:32:18.957Z,98403.72
2018-05-14T08:34:46.552Z,98416.31
2018-05-14T08:37:14.303Z,98414.86
2018-05-14T08:39:41.919Z,98415.13
2018-05-14T08:42:09.510Z,98410.11
2018-05-14T08:44:37.099Z,98410.19
2018-05-14T08:47:04.727Z,98417.00
2018-05-14T08:49:32.323Z,98416.72
2018-05-14T08:51:59.899Z,98414.92
2018-05-14T08:54:27.764Z,98411.31
2018-05-14T08:56:55.260Z,98415.31
2018-05-14T08:59:22.843Z,98415.52
2018-05-14T09:01:50.608Z,98418.81
2018-05-14T09:04:18.209Z,98414.78
2018-05-14T09:06:45.813Z,98424.00
2018-05-14T09:09:13.552Z,98426.13
2018-05-14T09:11:41.147Z,98415.45
2018-05-14T09:14:08.833Z,98418.14
2018-05-14T09:16:36.549Z,98422.09
2018-05-14T09:19:04.180Z,98421.50
2018-05-14T09:21:31.824Z,98414.41
2018-05-14T09:23:59.612Z,98415.58
2018-05-14T09:26:27.244Z,98412.17
2018-05-14T09:28:54.844Z,98413.84
2018-05-14T09:31:22.697Z,98409.25
2018-05-14T09:33:50.263Z,98412.61
2018-05-14T09:36:17.901Z,98419.22
2018-05-14T09:38:45.540Z,98411.66
2018-05-14T09:41:14.092Z,98410.41
2018-05-14T09:43:41.674Z,98416.23
2018-05-14T09:46:09.972Z,98411.75
2018-05-14T09:48:37.556Z,98408.83
2018-05-14T09:51:05.202Z,98412.61
2018-05-14T09:53:32.920Z,98404.67
2018-05-14T09:56:00.561Z,98408.15
2018-05-14T09:58:28.205Z,98410.00
2018-05-14T10:00:56.165Z,98402.41
2018-05-14T10:03:24.390Z,98398.12
2018-05-14T10:05:51.992Z,98390.66
2018-05-14T10:08:19.709Z,98395.63
2018-05-14T10:10:47.295Z,98397.39
2018-05-14T10:13:14.921Z,98397.12
2018-05-14T10:15:42.579Z,98393.37
2018-05-14T10:18:10.178Z,98400.09
2018-05-14T10:20:37.761Z,98399.83
2018-05-14T10:23:05.487Z,98398.17
2018-05-14T10:25:33.145Z,98404.85
2018-05-14T10:28:00.724Z,98398.92
2018-05-14T10:30:28.482Z,98403.19
2018-05-14T10:32:56.041Z,98399.08
2018-05-14T10:35:24.412Z,98402.23
2018-05-14T10:37:52.053Z,98400.59
2018-05-14T10:40:19.690Z,98394.67
2018-05-14T10:42:47.346Z,98395.80
2018-05-14T10:45:15.065Z,98391.88
2018-05-14T10:47:42.686Z,98396.41
2018-05-14T10:50:10.289Z,98394.27
2018-05-14T10:52:37.984Z,98396.47
2018-05-14T10:55:06.455Z,98392.16
2018-05-14T10:57:34.100Z,98390.65
2018-05-14T11:00:01.880Z,98381.98
2018-05-14T11:02:29.456Z,98377.63
2018-05-14T11:04:57.110Z,98382.49
2018-05-14T11:07:24.796Z,98377.22
2018-05-14T11:09:52.376Z,98374.55
2018-05-14T11:12:20.015Z,98378.30
2018-05-14T11:14:47.644Z,98373.70
2018-05-14T11:17:15.216Z,98366.77
2018-05-14T11:19:42.826Z,98367.98
2018-05-14T11:22:10.509Z,98374.02
2018-05-14T11:24:38.114Z,98369.91
2018-05-14T11:27:05.705Z,98363.91
2018-05-14T11:29:33.333Z,98367.41
2018-05-14T11:32:00.936Z,98367.48
2018-05-14T11:34:28.581Z,98361.41
2018-05-14T11:36:56.224Z,98357.86
2018-05-14T11:39:23.868Z,98356.77
2018-05-14T11:41:51.448Z,98349.05
2018-05-14T11:44:19.102Z,98357.02
2018-05-14T11:46:46.770Z,98353.91
2018-05-14T11:49:14.384Z,98347.39
2018-05-14T11:51:42.036Z,98345.39
2018-05-14T11:54:10.214Z,98350.95
2018-05-14T11:56:38.690Z,98348.51
2018-05-14T11:59:06.349Z,98356.13
2018-05-14T12:01:33.929Z,98359.58
2018-05-14T12:04:01.506Z,98361.63
2018-05-14T12:06:29.255Z,98358.30
2018-05-14T12:08:56.845Z,98364.47
2018-05-14T12:11:24.440Z,98364.77
2018-05-14T12:13:52.149Z,98361.34
2018-05-14T12:16:19.827Z,98362.98
2018-05-14T12:18:47.496Z,98363.36
2018-05-14T12:21:15.145Z,98367.25
2018-05-14T12:23:42.717Z,98358.95
2018-05-14T12:26:10.369Z,98363.08
2018-05-14T12:28:38.098Z,98359.61
2018-05-14T12:31:05.699Z,98360.88
2018-05-14T12:33:33.272Z,98354.70
2018-05-14T12:36:00.965Z,98343.85
2018-05-14T12:38:28.535Z,98340.75
2018-05-14T12:40:56.188Z,98336.53
2018-05-14T12:43:23.833Z,98337.64
2018-05-14T12:45:51.411Z,98329.89
2018-05-14T12:48:19.047Z,98338.98
2018-05-14T12:50:46.992Z,98342.41
2018-05-14T12:53:14.574Z,98333.13
2018-05-14T12:55:42.151Z,98330.37
2018-05-14T12:58:10.461Z,98326.44
2018-05-14T13:00:38.077Z,98331.15
2018-05-14T13:03:05.725Z,98327.13
2018-05-14T13:05:33.422Z,98335.66
2018-05-14T13:08:01.036Z,98333.57
2018-05-14T13:10:28.640Z,98336.09
2018-05-14T13:12:56.346Z,98336.11
2018-05-14T13:15:23.923Z,98347.04
2018-05-14T13:17:51.593Z,98336.66
2018-05-14T13:20:19.293Z,98340.27
2018-05-14T13:22:46.875Z,98345.67
2018-05-14T13:25:14.549Z,98342.90
2018-05-14T13:27:42.242Z,98338.34
2018-05-14T13:30:09.856Z,98346.77
2018-05-14T13:32:37.497Z,98348.69
2018-05-14T13:35:05.321Z,98343.30
2018-05-14T13:37:32.993Z,98344.96
2018-05-14T13:40:00.524Z,98332.11
2018-05-14T13:42:28.155Z,98339.31
2018-05-14T13:44:55.765Z,98329.63
2018-05-14T13:47:23.352Z,98335.56
2018-05-14T13:49:50.963Z,98340.37
2018-05-14T13:52:18.605Z,98337.62
2018-05-14T13:54:46.196Z,98330.97
2018-05-14T13:57:13.915Z,98326.02
2018-05-14T13:59:41.517Z,98328.90
2018-05-14T14:02:09.100Z,98326.13
2018-05-14T14:04:36.804Z,98328.05
2018-05-14T14:07:04.408Z,98318.94
2018-05-14T14:09:31.995Z,98317.33
2018-05-14T14:11:59.620Z,98313.05
2018-05-14T14:14:27.264Z,98318.56
2018-05-14T14:16:54.893Z,98312.48
2018-05-14T14:19:22.563Z,98315.12
2018-05-14T14:21:50.144Z,98322.55
2018-05-14T14:24:17.831Z,98319.11
2018-05-14T14:26:45.509Z,98314.28
2018-05-14T14:29:13.089Z,98313.88
2018-05-14T14:31:40.678Z,98310.02
2018-05-14T14:34:08.431Z,98309.47
2018-05-14T14:36:36.040Z,98308.09
2018-05-14T14:39:03.781Z,98309.20
2018-05-14T14:41:31.501Z,98306.00
2018-05-14T14:43:59.071Z,98307.94
2018-05-14T14:46:26.815Z,98300.06
2018-05-14T14:48:54.373Z,98289.30
2018-05-14T14:51:22.820Z,98288.88
2018-05-14T14:53:50.466Z,98290.55
2018-05-14T14:56:18.188Z,98294.01
2018-05-14T14:58:45.775Z,98293.72
2018-05-14T15:01:13.429Z,98296.35
2018-05-14T15:03:41.126Z,98302.42
2018-05-14T15:06:08.723Z,98296.78
2018-05-14T15:08:36.300Z,98297.05
2018-05-14T15:11:04.108Z,98293.72
2018-05-14T15:13:31.692Z,98293.73
2018-05-14T15:15:59.295Z,98290.97
2018-05-14T15:18:27.374Z,98286.15
2018-05-14T15:20:54.965Z,98280.63
2018-05-14T15:23:22.615Z,98287.91
2018-05-14T15:25:50.317Z,98284.90
2018-05-14T15:28:17.912Z,98303.66
2018-05-14T15:30:45.579Z,98313.03
2018-05-14T15:33:13.203Z,98308.17
2018-05-14T15:35:40.790Z,98310.94
2018-05-14T15:38:08.359Z,98312.49
2018-05-14T15:40:36.076Z,98332.36
2018-05-14T15:43:03.724Z,98331.44
2018-05-14T15:45:31.374Z,98327.33
2018-05-14T15:47:59.149Z,98327.91
2018-05-14T15:50:26.740Z,98329.73
2018-05-14T15:52:54.401Z,98324.41
2018-05-14T15:55:22.025Z,98329.91
2018-05-14T15:57:49.608Z,98331.86
2018-05-14T16:00:17.191Z,98326.78
2018-05-14T16:02:44.976Z,98334.84
2018-05-14T16:05:12.561Z,98328.38
2018-05-14T16:07:40.156Z,98325.58
2018-05-14T16:10:07.884Z,98329.40
2018-05-14T16:12:35.475Z,98328.91
2018-05-14T16:15:03.089Z,98334.09
2018-05-14T16:17:30.880Z,98332.96
2018-05-14T16:19:58.470Z,98338.67
2018-05-14T16:22:26.124Z,98348.61
2018-05-14T16:24:53.770Z,98347.75
2018-05-14T16:27:21.396Z,98352.17
2018-05-14T16:29:49.027Z,98356.41
2018-05-14T16:32:16.715Z,98349.28
2018-05-14T16:34:44.312Z,98362.64
2018-05-14T16:37:11.972Z,98365.13
2018-05-14T16:39:40.025Z,98366.08
2018-05-14T16:42:07.655Z,98366.61
2018-05-14T16:44:35.252Z,98366.20
2018-05-14T16:47:02.949Z,98362.85
2018-05-14T16:49:30.632Z,98367.17
2018-05-14T16:51:58.240Z,98376.50
2018-05-14T16:54:25.879Z,98373.88
2018-05-14T16:56:53.478Z,98372.41
2018-05-14T16:59:21.060Z,98381.30
2018-05-14T17:01:48.800Z,98377.33
2018-05-14T17:04:16.463Z,98373.57
2018-05-14T17:06:44.074Z,98370.50
2018-05-14T17:09:11.790Z,98378.78
2018-05-14T17:11:39.373Z,98379.83
2018-05-14T17:14:06.979Z,98386.85
2018-05-14T17:16:34.641Z,98384.81
2018-05-14T17:19:02.221Z,98376.72
2018-05-14T17:21:37.587Z,98368.44
2018-05-14T17:24:05.559Z,98370.31
2018-05-14T17:26:33.293Z,98382.49
2018-05-14T17:29:00.837Z,98388.34
2018-05-14T17:31:28.468Z,98384.55
2018-05-14T17:33:56.046Z,98388.72
2018-05-14T17:36:23.769Z,98387.80
2018-05-14T17:38:51.464Z,98382.81
2018-05-14T17:41:19.074Z,98393.90
2018-05-14T17:43:46.647Z,98395.28
2018-05-14T17:46:14.353Z,98405.20
2018-05-14T17:48:42.000Z,98403.18
2018-05-14T17:51:09.643Z,98405.75
2018-05-14T17:53:37.297Z,98405.94
2018-05-14T17:56:05.522Z,98396.58
2018-05-14T17:58:33.112Z,98391.52
2018-05-14T18:01:00.806Z,98385.84
2018-05-14T18:03:28.376Z,98392.37
2018-05-14T18:05:56.595Z,98398.66
2018-05-14T18:08:24.335Z,98400.16
2018-05-14T18:10:52.009Z,98406.41
2018-05-14T18:13:19.555Z,98405.63
2018-05-14T18:15:47.619Z,98406.23
2018-05-14T18:18:15.200Z,98412.57
2018-05-14T18:20:43.700Z,98412.05
2018-05-14T18:23:27.040Z,98416.67
2018-05-14T18:26:12.538Z,98412.76
2018-05-14T18:28:40.943Z,98417.45
2018-05-14T18:31:14.283Z,98421.03
2018-05-14T18:33:42.124Z,98425.90
2018-05-14T18:36:10.477Z,98426.41
2018-05-14T18:38:38.121Z,98424.84
2018-05-14T18:41:05.901Z,98428.77
2018-05-14T18:43:33.549Z,98424.23
2018-05-14T18:46:01.188Z,98435.16
2018-05-14T18:48:29.713Z,98430.33
2018-05-14T18:50:57.283Z,98439.37
2018-05-14T18:53:24.870Z,98440.67
2018-05-14T18:55:52.504Z,98437.85
2018-05-14T18:58:20.102Z,98439.67
2018-05-14T19:00:47.708Z,98438.80
2018-05-14T19:03:15.380Z,98441.53
2018-05-14T19:05:42.980Z,98446.68
2018-05-14T19:08:10.591Z,98447.09
2018-05-14T19:10:43.739Z,98442.56
2018-05-14T19:13:11.386Z,98447.21
2018-05-14T19:15:44.797Z,98444.36
2018-05-14T19:18:12.423Z,98458.59
2018-05-14T19:20:40.020Z,98459.13
2018-05-14T19:23:13.351Z,98462.41
2018-05-14T19:25:41.044Z,98460.58
2018-05-14T19:28:14.359Z,98459.39
2018-05-14T19:30:42.014Z,98466.44
2018-05-14T19:33:09.637Z,98465.30
2018-05-14T19:35:43.058Z,98459.52
2018-05-14T19:38:10.665Z,98463.17
2018-05-14T19:40:43.996Z,98463.17
2018-05-14T19:43:11.597Z,98467.28
2018-05-14T19:45:39.175Z,98470.93
2018-05-14T19:48:06.901Z,98468.65
2018-05-14T19:50:34.552Z,98463.43
2018-05-14T19:53:02.208Z,98464.53
2018-05-14T19:55:29.859Z,98467.54
2018-05-14T19:57:57.487Z,98462.55
2018-05-14T20:00:25.144Z,98470.47
2018-05-14T20:02:52.938Z,98467.38
2018-05-14T20:05:20.541Z,98474.41
2018-05-14T20:07:48.129Z,98477.34
2018-05-14T20:10:15.748Z,98476.52
2018-05-14T20:12:43.331Z,98483.05
2018-05-14T20:15:10.937Z,98484.40
2018-05-14T20:17:39.397Z,98477.62
2018-05-14T20:20:07.167Z,98478.75
2018-05-14T20:22:34.769Z,98486.89
2018-05-14T20:25:02.413Z,98482.39
2018-05-14T20:27:30.025Z,98495.95
2018-05-14T20:29:57.623Z,98497.95
2018-05-14T20:32:25.382Z,98492.73
2018-05-14T20:34:53.016Z,98489.30
2018-05-14T20:37:20.702Z,98486.55
2018-05-14T20:39:48.441Z,98483.19
2018-05-14T20:42:16.028Z,98479.69
2018-05-14T20:44:44.458Z,98477.02
2018-05-14T20:47:12.200Z,98474.50
2018-05-14T20:49:39.800Z,98471.91
2018-05-14T20:52:07.452Z,98480.95
2018-05-14T20:54:35.116Z,98484.73
2018-05-14T20:57:02.693Z,98485.38
2018-05-14T20:59:30.292Z,98486.43
2018-05-14T21:01:58.008Z,98483.84
2018-05-14T21:04:25.688Z,98489.72
2018-05-14T21:06:53.291Z,98488.88
2018-05-14T21:09:20.919Z,98489.16
2018-05-14T21:11:48.502Z,98490.67
2018-05-14T21:14:16.143Z,98495.41
2018-05-14T21:16:46.564Z,98494.78
2018-05-14T21:19:14.154Z,98498.09
2018-05-14T21:21:41.788Z,98493.20
2018-05-14T21:24:09.925Z,98498.92
2018-05-14T21:26:37.551Z,98499.45
2018-05-14T21:29:05.133Z,98496.30
2018-05-14T21:31:32.788Z,98494.41
2018-05-14T21:34:00.371Z,98494.41
2018-05-14T21:36:27.960Z,98502.59
2018-05-14T21:38:55.695Z,98500.39
2018-05-14T21:41:23.304Z,98496.83
2018-05-14T21:43:50.891Z,98499.87
2018-05-14T21:46:18.539Z,98497.82
2018-05-14T21:48:46.201Z,98503.08
2018-05-14T21:51:13.860Z,98503.61
2018-05-14T21:53:41.649Z,98509.43
2018-05-14T21:56:09.227Z,98511.44
2018-05-14T21:58:37.784Z,98507.58
2018-05-14T22:01:05.488Z,98507.48
2018-05-14T22:03:33.143Z,98507.59
2018-05-14T22:06:00.798Z,98512.25
2018-05-14T22:08:28.581Z,98507.00
2018-05-14T22:10:56.165Z,98514.30
2018-05-14T22:13:23.809Z,98506.73
2018-05-14T22:15:51.463Z,98510.62
2018-05-14T22:18:19.130Z,98508.46
2018-05-14T22:20:46.724Z,98515.04
2018-05-14T22:23:14.563Z,98507.05
2018-05-14T22:25:42.151Z,98506.73
2018-05-14T22:28:09.739Z,98503.38
2018-05-14T22:30:37.363Z,98500.97
2018-05-14T22:33:05.020Z,98502.33
2018-05-14T22:35:32.667Z,98497.80
2018-05-14T22:38:00.356Z,98497.97
2018-05-14T22:40:28.001Z,98503.22
2018-05-14T22:42:55.588Z,98499.80
2018-05-14T22:45:23.277Z,98497.29
2018-05-14T22:47:50.933Z,98498.17
2018-05-14T22:50:18.584Z,98497.69
2018-05-14T22:52:46.228Z,98492.13
2018-05-14T22:55:13.895Z,98493.33
2018-05-14T22:57:41.480Z,98498.63
2018-05-14T23:00:09.328Z,98498.84
2018-05-14T23:02:36.931Z,98501.27
2018-05-14T23:05:05.094Z,98498.69
2018-05-14T23:07:32.727Z,98504.08
2018-05-14T23:10:00.315Z,98511.78
2018-05-14T23:12:28.888Z,98513.47
2018-05-14T23:14:56.644Z,98511.05
2018-05-14T23:17:24.242Z,98517.43
2018-05-14T23:19:51.890Z,98522.90
2018-05-14T23:22:19.588Z,98527.77
2018-05-14T23:24:47.380Z,98530.53
2018-05-14T23:27:15.036Z,98538.30
2018-05-14T23:29:42.779Z,98541.23
2018-05-14T23:32:10.439Z,98545.97
2018-05-14T23:34:38.034Z,98544.22
2018-05-14T23:37:05.736Z,98547.37
2018-05-14T23:39:33.323Z,98548.73
2018-05-14T23:42:01.161Z,98546.66
2018-05-14T23:44:28.896Z,98548.80
2018-05-14T23:46:56.499Z,98548.00
2018-05-14T23:49:24.085Z,98547.61
2018-05-14T23:51:51.728Z,98541.45
2018-05-14T23:54:19.386Z,98547.67
2018-05-14T23:56:46.967Z,98547.15
2018-05-14T23:59:14.618Z,98542.22
